Kansas City International, MO

3:27 PM CDT on May 23, 2017 (GMT -0500)
Kansas City International | | Change Station
Active Advisory: Flood Warning

Elev 1024 ft 39.30 °N, 94.71 °W | Updated 34 minutes ago

Mostly Cloudy
Mostly Cloudy
66 °F
Feels Like 66 °F
N
10
Wind Variable Wind from WNW

Today
High -- | Low -- °F
--% Chance of Precip.
Yesterday
High -- | Low -- °F
Precip. -- in
Pressure 29.81 in
Visibility 10.0 miles
Clouds Scattered Clouds 4300 ft
Scattered Clouds 7000 ft
Mostly Cloudy 9000 ft
Dew Point 48 °F
Humidity 52%
Rainfall 0.00 in
Snow Depth Not available.
5:58 AM 8:32 PM
Waning Crescent, 6% visible
METAR KMCI 231953Z 30009KT 10SM SCT043 SCT070 BKN090 19/09 A2982 RMK AO2 SLP093 T01890089
Pressure 29.81 in
Visibility 10.0 miles
Clouds Scattered Clouds 4300 ft
Scattered Clouds 7000 ft
Mostly Cloudy 9000 ft
Dew Point 48 °F
Humidity 52%
Rainfall 0.00 in
Snow Depth Not available.
5:58 AM 8:32 PM
Waning Crescent, 6% visible
METAR KMCI 231953Z 30009KT 10SM SCT043 SCT070 BKN090 19/09 A2982 RMK AO2 SLP093 T01890089

Get Your Daily Forecast Email!

Thanks for signing up!

Be on the lookout for a verification email in your inbox.

You'll start receiving severe weather alerts in your inbox..

×

10-Day Weather Forecast

Almanac

Astronomy

May. 23, 2017 Rise Set
Actual Time
Civil Twilight
Nautical Twilight
Astronomical Twilight
Moon
Length of Visible Light
Length of Day
Tomorrow will be .
, % of the Moon is Illuminated

Today's Extremes

State Highs State Lows

Community

WunderPhotos

Category 6

Welcome to Category 6. This is the collective home for Weather Underground's featured writeups by Dr. Jeff Masters (right), Bob Henson (left), Chris Burt, and other regular contributors.

Nearby

Air Quality

  Air Quality AQ Index Pollutant
Not available.

Snow Depth

Station Depth Elevation

Earthquake Activity

City Distance Mag. Time & Date
Minimum magnitude displayed is 2.5.

Coastal Water Temperatures

Place Temperature

Stations

Nearby Weather Stations

Station Location Temp. Windchill Dew Point Humidity Wind Precip. Elev Updated Type
                   

Watches & Warnings

Flood Warning
Issued: 10:46 AM CDT May. 23, 2017 – National Weather Service

The Flood Warning continues for
the Missouri River at Atchison.
* Until Wednesday afternoon.
* At 10:00 am Tuesday the stage was 22.2 feet.
* Flood stage is 22.0 feet.
* Forecast... the river will continue to fall to below flood stage by
this afternoon.
* At 22.0 feet... low-lying areas on the Missouri side of the river
begin to flood.

                       Latest
location fs stage day/time forecast

Missouri River
Atchison 22 22.2 Tue 10 am 22.0 this afternoon


lat... Lon 3970 9505 3964 9488 3942 9493 3942 9508 3958 9516